createdAt,value
2022-12-25T00:04:32.226Z,26.33
2022-12-25T00:09:54.519Z,27.00
2022-12-25T00:15:17.219Z,25.62
2022-12-25T00:20:39.416Z,24.77
2022-12-25T00:26:01.829Z,25.93
2022-12-25T00:31:29.941Z,25.70
2022-12-25T00:36:52.556Z,26.80
2022-12-25T00:42:23.780Z,25.20
2022-12-25T00:47:46.490Z,23.30
2022-12-25T00:53:08.714Z,24.63
2022-12-25T00:58:31.485Z,23.38
2022-12-25T01:03:53.693Z,22.77
2022-12-25T01:09:33.706Z,22.00
2022-12-25T01:20:13.430Z,24.57
2022-12-25T01:25:35.696Z,23.30
2022-12-25T01:31:01.956Z,23.27
2022-12-25T01:36:30.724Z,23.70
2022-12-25T01:41:53.180Z,19.10
2022-12-25T01:47:19.106Z,23.17
2022-12-25T01:52:43.222Z,23.52
2022-12-25T01:58:05.516Z,24.35
2022-12-25T02:03:28.385Z,25.35
2022-12-25T02:08:50.900Z,24.37
2022-12-25T02:14:13.651Z,23.52
2022-12-25T02:19:57.617Z,23.42
2022-12-25T02:25:43.520Z,24.92
2022-12-25T02:31:29.108Z,23.75
2022-12-25T02:37:04.914Z,24.40
2022-12-25T02:43:00.985Z,24.12
2022-12-25T02:48:43.620Z,25.05
2022-12-25T02:54:28.288Z,24.07
2022-12-25T03:00:12.219Z,23.93
2022-12-25T03:05:56.109Z,23.25
2022-12-25T03:11:33.766Z,25.37
2022-12-25T03:16:57.743Z,24.25
2022-12-25T03:22:49.594Z,24.15
2022-12-25T03:28:13.996Z,25.45
2022-12-25T03:33:46.272Z,25.15
2022-12-25T03:39:47.189Z,26.73
2022-12-25T03:45:35.075Z,26.67
2022-12-25T03:51:31.879Z,25.37
2022-12-25T03:57:14.925Z,26.10
2022-12-25T04:02:54.911Z,25.77
2022-12-25T04:14:09.389Z,25.90
2022-12-25T04:19:49.344Z,26.30
2022-12-25T04:25:29.164Z,26.93
2022-12-25T04:31:09.329Z,27.70
2022-12-25T04:36:31.702Z,29.37
2022-12-25T04:41:54.124Z,27.73
2022-12-25T04:47:16.370Z,27.80
2022-12-25T04:52:40.355Z,26.43
2022-12-25T04:58:02.633Z,28.63
2022-12-25T05:03:25.514Z,29.70
2022-12-25T05:08:48.787Z,30.47
2022-12-25T05:14:11.226Z,27.70
2022-12-25T05:19:33.795Z,29.40
2022-12-25T05:24:56.100Z,29.12
2022-12-25T05:30:19.046Z,28.77
2022-12-25T05:35:42.894Z,28.23
2022-12-25T05:41:05.329Z,29.40
2022-12-25T05:46:29.018Z,29.57
2022-12-25T05:51:51.619Z,29.65
2022-12-25T05:57:14.013Z,30.13
2022-12-25T06:02:36.867Z,28.47
2022-12-25T06:07:59.471Z,29.23
2022-12-25T06:13:22.262Z,30.63
2022-12-25T06:18:48.039Z,28.53
2022-12-25T06:24:17.651Z,29.47
2022-12-25T06:29:36.250Z,27.05
2022-12-25T06:34:58.465Z,26.82
2022-12-25T06:40:21.374Z,25.33
2022-12-25T06:45:43.906Z,25.40
2022-12-25T06:51:06.313Z,26.68
2022-12-25T06:56:34.521Z,24.90
2022-12-25T07:02:03.591Z,25.40
2022-12-25T07:07:27.357Z,26.33
2022-12-25T07:12:49.628Z,25.67
2022-12-25T07:18:11.915Z,24.77
2022-12-25T07:23:34.622Z,24.15
2022-12-25T07:28:57.181Z,25.90
2022-12-25T07:34:19.446Z,25.57
2022-12-25T07:39:41.749Z,25.97
2022-12-25T07:45:04.258Z,26.47
2022-12-25T07:50:27.086Z,28.20
2022-12-25T07:55:49.312Z,27.25
2022-12-25T08:01:23.942Z,28.23
2022-12-25T08:06:49.023Z,28.50
2022-12-25T08:12:11.608Z,29.30
2022-12-25T08:17:33.872Z,30.27
2022-12-25T08:22:56.222Z,30.23
2022-12-25T08:28:20.086Z,29.30
2022-12-25T08:33:44.081Z,31.35
2022-12-25T08:39:06.941Z,30.48
2022-12-25T08:44:31.183Z,32.83
2022-12-25T08:49:53.483Z,32.10
2022-12-25T08:55:15.976Z,34.05
2022-12-25T09:00:38.529Z,31.42
2022-12-25T09:06:01.596Z,32.05
2022-12-25T09:11:27.358Z,31.23
2022-12-25T09:16:49.886Z,33.92
2022-12-25T09:22:12.160Z,33.00
2022-12-25T09:27:34.978Z,32.90
2022-12-25T09:32:57.558Z,35.40
2022-12-25T09:38:19.936Z,35.00
2022-12-25T09:43:49.394Z,35.50
2022-12-25T09:49:47.690Z,35.40
2022-12-25T09:55:24.497Z,33.37
2022-12-25T10:00:57.891Z,32.58
2022-12-25T10:07:04.429Z,30.88
2022-12-25T10:12:49.935Z,30.77
2022-12-25T10:18:25.106Z,34.15
2022-12-25T10:23:54.441Z,38.33
2022-12-25T10:29:21.563Z,28.37
2022-12-25T10:34:45.789Z,35.83
2022-12-25T10:40:08.135Z,35.03
2022-12-25T10:45:30.440Z,33.27
2022-12-25T10:50:54.654Z,31.87
2022-12-25T10:56:29.468Z,32.13
2022-12-25T11:01:55.254Z,34.95
2022-12-25T11:07:27.768Z,33.10
2022-12-25T11:12:53.170Z,32.67
2022-12-25T11:18:29.315Z,31.90
2022-12-25T11:23:54.675Z,31.12
2022-12-25T11:29:33.032Z,55.10
2022-12-25T11:34:58.938Z,32.98
2022-12-25T11:40:24.571Z,32.95
2022-12-25T11:45:57.590Z,30.70
2022-12-25T11:51:22.343Z,31.57
2022-12-25T11:56:46.131Z,33.07
2022-12-25T12:02:34.270Z,31.12
2022-12-25T12:08:06.726Z,31.90
2022-12-25T12:13:45.993Z,31.65
2022-12-25T12:19:10.602Z,34.17
2022-12-25T12:24:43.144Z,32.55
2022-12-25T12:30:08.710Z,33.78
2022-12-25T12:35:44.291Z,33.70
2022-12-25T12:41:19.394Z,32.88
2022-12-25T12:46:49.775Z,34.13
2022-12-25T12:52:42.578Z,34.67
2022-12-25T12:58:10.835Z,34.30
2022-12-25T13:03:53.352Z,36.13
2022-12-25T13:09:54.284Z,36.00
2022-12-25T13:15:19.401Z,36.25
2022-12-25T13:21:02.667Z,36.05
2022-12-25T13:26:33.840Z,37.48
2022-12-25T13:31:57.009Z,77.15
2022-12-25T13:37:23.579Z,39.15
2022-12-25T13:42:51.539Z,38.23
2022-12-25T13:48:17.130Z,37.55
2022-12-25T13:53:40.339Z,35.73
2022-12-25T13:59:05.575Z,36.38
2022-12-25T14:04:31.420Z,35.33
2022-12-25T14:09:54.936Z,35.00
2022-12-25T14:15:20.316Z,41.40
2022-12-25T14:20:48.998Z,38.83
2022-12-25T14:26:11.582Z,38.17
2022-12-25T14:31:35.062Z,35.55
2022-12-25T14:36:58.715Z,34.55
2022-12-25T14:42:28.399Z,34.43
2022-12-25T14:48:07.391Z,40.63
2022-12-25T14:53:41.136Z,38.63
2022-12-25T14:59:10.554Z,42.58
2022-12-25T15:04:35.886Z,36.77
2022-12-25T15:10:27.029Z,36.42
2022-12-25T15:15:23.290Z,39.58
2022-12-25T15:20:56.696Z,39.73
2022-12-25T15:26:20.003Z,39.92
2022-12-25T15:31:45.045Z,39.53
2022-12-25T15:37:07.545Z,43.08
2022-12-25T15:42:33.246Z,39.10
2022-12-25T15:47:56.200Z,41.00
2022-12-25T15:53:18.735Z,40.98
2022-12-25T15:58:41.188Z,55.75
2022-12-25T16:04:03.797Z,73.62
2022-12-25T16:09:28.238Z,44.25
2022-12-25T16:14:51.062Z,39.65
2022-12-25T16:20:14.436Z,40.03
2022-12-25T16:25:37.857Z,39.98
2022-12-25T16:31:02.057Z,37.58
2022-12-25T16:41:57.916Z,34.60
2022-12-25T16:47:20.368Z,36.08
2022-12-25T16:52:44.168Z,38.00
2022-12-25T16:58:06.991Z,38.70
2022-12-25T17:03:29.979Z,36.73
2022-12-25T17:08:52.771Z,36.80
2022-12-25T17:14:19.542Z,37.87
2022-12-25T17:19:42.820Z,32.17
2022-12-25T17:25:06.091Z,32.63
2022-12-25T17:30:29.316Z,32.03
2022-12-25T17:35:56.158Z,35.35
2022-12-25T17:41:20.137Z,31.07
2022-12-25T17:46:44.085Z,31.82
2022-12-25T17:52:06.796Z,30.65
2022-12-25T17:57:29.063Z,32.10
2022-12-25T18:02:53.104Z,55.43
2022-12-25T18:08:15.799Z,32.20
2022-12-25T18:13:38.205Z,34.67
2022-12-25T18:19:01.521Z,37.58
2022-12-25T18:24:24.738Z,34.60
2022-12-25T18:29:46.991Z,33.57
2022-12-25T18:35:11.127Z,32.60
2022-12-25T18:40:33.479Z,32.67
2022-12-25T18:46:05.461Z,29.90
2022-12-25T18:51:36.578Z,30.47
2022-12-25T18:56:54.621Z,29.15
2022-12-25T19:02:17.926Z,26.48
2022-12-25T19:07:41.207Z,31.27
2022-12-25T19:13:03.424Z,26.13
2022-12-25T19:18:25.994Z,28.33
2022-12-25T19:23:49.566Z,28.35
2022-12-25T19:29:15.767Z,29.15
2022-12-25T19:34:43.184Z,29.83
2022-12-25T19:40:05.601Z,35.20
2022-12-25T19:45:28.928Z,28.07
2022-12-25T19:50:51.261Z,28.10
2022-12-25T19:56:14.569Z,28.23
2022-12-25T20:01:39.784Z,28.23
2022-12-25T20:07:02.746Z,26.90
2022-12-25T20:12:25.098Z,27.20
2022-12-25T20:17:48.123Z,27.55
2022-12-25T20:23:10.528Z,27.20
2022-12-25T20:28:34.775Z,28.70
2022-12-25T20:33:57.024Z,25.77
2022-12-25T20:39:20.299Z,26.63
2022-12-25T20:44:42.876Z,25.65
2022-12-25T20:50:06.107Z,26.77
2022-12-25T20:55:28.493Z,26.10
2022-12-25T21:00:52.305Z,26.12
2022-12-25T21:06:16.341Z,27.60
2022-12-25T21:11:39.018Z,25.97
2022-12-25T21:17:01.710Z,27.17
2022-12-25T21:22:25.335Z,27.55
2022-12-25T21:27:48.012Z,28.00
2022-12-25T21:33:28.538Z,27.52
2022-12-25T21:38:52.244Z,26.47
2022-12-25T21:44:19.925Z,29.27
2022-12-25T21:49:59.870Z,27.60
2022-12-25T21:55:22.301Z,26.90
2022-12-25T22:00:45.011Z,28.65
2022-12-25T22:06:27.041Z,26.65
2022-12-25T22:12:06.967Z,27.58
2022-12-25T22:17:52.747Z,27.57
2022-12-25T22:23:16.607Z,27.40
2022-12-25T22:28:48.764Z,26.93
2022-12-25T22:34:13.670Z,27.63
2022-12-25T22:39:36.614Z,27.98
2022-12-25T22:44:58.879Z,31.02
2022-12-25T22:50:21.981Z,29.20
2022-12-25T22:55:44.377Z,27.17
2022-12-25T23:01:07.778Z,26.10
2022-12-25T23:06:30.460Z,26.27
2022-12-25T23:11:52.972Z,25.93
2022-12-25T23:17:36.425Z,26.05
2022-12-25T23:23:17.353Z,26.47
2022-12-25T23:28:57.744Z,26.65
2022-12-25T23:34:20.859Z,25.27
2022-12-25T23:39:43.195Z,24.47
2022-12-25T23:45:05.498Z,25.43
2022-12-25T23:50:28.198Z,26.03
2022-12-25T23:55:55.777Z,26.48
